Time;durP1;ratioP1;P1;durP2;ratioP2;P2;SDS_P1;SDS_P2;PMS_P1;PMS_P2;Temp;Humidity;BMP_temperature;BMP_pressure;BME280_temperature;BME280_humidity;BME280_pressure;Samples;Min_cycle;Max_cycle;Signal;HPM_P1;HPM_P2
2020/12/13 00:01:06;;;;;;;2.95;0.50;;;20.50;71.90;;;;;;5060035;28;20402;-92
2020/12/13 00:03:33;;;;;;;3.70;0.93;;;20.50;72.20;;;;;;5060471;28;20444;-92
2020/12/13 00:06:00;;;;;;;6.55;0.73;;;20.60;70.10;;;;;;5079554;28;20800;-95
2020/12/13 00:08:28;;;;;;;2.00;0.60;;;20.70;70.00;;;;;;5075134;28;20386;-91
2020/12/13 00:10:56;;;;;;;4.43;0.73;;;20.90;69.80;;;;;;5057648;28;20381;-89
2020/12/13 00:13:29;;;;;;;2.90;0.57;;;21.20;68.50;;;;;;5061768;28;20390;-96
2020/12/13 00:15:57;;;;;;;3.95;0.50;;;21.40;66.30;;;;;;5040546;28;20404;-94
2020/12/13 00:18:24;;;;;;;3.47;0.57;;;22.20;65.00;;;;;;5039382;28;20386;-92
2020/12/13 00:20:51;;;;;;;1.75;0.52;;;22.20;62.50;;;;;;5043240;28;20385;-92
2020/12/13 00:23:20;;;;;;;2.70;0.30;;;22.20;64.40;;;;;;5041183;28;20462;-95
2020/12/13 00:25:50;;;;;;;2.42;0.45;;;22.50;64.30;;;;;;5022177;28;20389;-92
2020/12/13 00:28:17;;;;;;;1.93;0.40;;;22.60;58.70;;;;;;5036667;28;20398;-91
2020/12/13 00:30:48;;;;;;;2.35;0.38;;;22.40;59.40;;;;;;5035072;28;20875;-94
2020/12/13 00:33:15;;;;;;;2.33;0.63;;;21.90;62.30;;;;;;5039484;28;20777;-94
2020/12/13 00:35:43;;;;;;;2.92;0.50;;;21.40;64.80;;;;;;5056482;28;20383;-91
2020/12/13 00:38:10;;;;;;;2.80;0.40;;;21.80;64.40;;;;;;5037697;28;20388;-89
2020/12/13 00:40:37;;;;;;;1.58;0.32;;;21.90;63.40;;;;;;5054121;28;20731;-93
2020/12/13 00:43:04;;;;;;;1.65;0.40;;;21.90;64.10;;;;;;5055265;28;20403;-90
2020/12/13 00:45:34;;;;;;;1.85;0.50;;;22.00;64.80;;;;;;5053817;28;20485;-93
2020/12/13 00:48:00;;;;;;;2.50;0.60;;;22.20;62.70;;;;;;5053788;28;20642;-94
2020/12/13 00:50:27;;;;;;;2.30;0.67;;;22.70;61.30;;;;;;5055817;28;20469;-93
2020/12/13 00:52:55;;;;;;;3.47;0.60;;;22.80;61.20;;;;;;5062601;28;20390;-92
2020/12/13 00:55:22;;;;;;;2.83;0.40;;;23.10;62.60;;;;;;5044499;28;20403;-92
2020/12/13 00:57:52;;;;;;;3.92;0.60;;;23.10;59.20;;;;;;5079468;28;20359;-93
2020/12/13 01:00:19;;;;;;;2.00;0.40;;;22.80;60.00;;;;;;5047876;28;20946;-94
2020/12/13 01:02:52;;;;;;;2.90;0.43;;;22.50;59.40;;;;;;5066458;28;20445;-93
2020/12/13 01:05:21;;;;;;;2.42;0.60;;;22.50;60.20;;;;;;5036090;28;20400;-88
2020/12/13 01:07:48;;;;;;;3.33;0.50;;;22.30;58.70;;;;;;5047359;28;20459;-90
2020/12/13 01:10:24;;;;;;;1.65;0.30;;;21.90;61.10;;;;;;5054764;28;20398;-94
2020/12/13 01:12:53;;;;;;;4.70;0.65;;;21.80;60.30;;;;;;5022020;28;20424;-92
2020/12/13 01:15:20;;;;;;;2.85;0.60;;;21.80;61.20;;;;;;5023201;28;20408;-88
2020/12/13 01:17:49;;;;;;;2.38;0.50;;;22.00;62.60;;;;;;5054128;28;20410;-89
2020/12/13 01:20:37;;;;;;;2.55;0.30;;;21.90;60.80;;;;;;5052071;28;20400;-92
2020/12/13 01:23:04;;;;;;;1.63;0.50;;;21.80;60.90;;;;;;5033854;28;20401;-92
2020/12/13 01:25:31;;;;;;;1.60;0.40;;;21.70;60.30;;;;;;5027371;28;20452;-92
2020/12/13 01:28:01;;;;;;;2.78;0.30;;;21.80;58.80;;;;;;5055293;28;20883;-94
2020/12/13 01:30:31;;;;;;;1.48;0.40;;;21.80;60.40;;;;;;5063449;28;20371;-91
2020/12/13 01:33:01;;;;;;;2.10;0.60;;;21.80;60.50;;;;;;5047163;28;20391;-92
2020/12/13 01:35:28;;;;;;;3.10;0.40;;;21.80;61.80;;;;;;5060158;28;20443;-93
2020/12/13 01:37:55;;;;;;;3.10;0.50;;;21.80;61.10;;;;;;5054727;28;20390;-94
2020/12/13 01:40:22;;;;;;;2.60;0.60;;;21.90;61.80;;;;;;5041962;28;21067;-92
2020/12/13 01:42:49;;;;;;;3.28;0.47;;;21.70;61.10;;;;;;5047459;28;20378;-93
2020/12/13 01:45:18;;;;;;;2.08;0.40;;;21.60;61.80;;;;;;5030376;28;20787;-92
2020/12/13 01:47:49;;;;;;;1.70;0.40;;;21.60;60.50;;;;;;5060735;28;20401;-93
2020/12/13 01:50:56;;;;;;;2.80;0.30;;;21.70;62.40;;;;;;5051410;28;20392;-88
2020/12/13 01:53:17;;;;;;;2.28;0.40;;;21.80;60.10;;;;;;5047675;28;20427;-88
2020/12/13 01:55:46;;;;;;;3.23;0.53;;;21.80;61.70;;;;;;5050932;28;20411;-90
2020/12/13 01:58:25;;;;;;;2.70;0.52;;;21.50;60.80;;;;;;5050482;28;20376;-93
2020/12/13 02:00:59;;;;;;;1.98;0.50;;;21.40;63.10;;;;;;5039038;28;20970;-93
2020/12/13 02:03:49;;;;;;;4.07;0.50;;;21.50;63.50;;;;;;5028385;28;20913;-91
2020/12/13 02:06:23;;;;;;;1.60;0.40;;;21.50;64.20;;;;;;5062742;28;20475;-90
2020/12/13 02:08:51;;;;;;;3.33;0.40;;;21.50;64.80;;;;;;5061157;28;20394;-88
2020/12/13 02:11:19;;;;;;;2.50;0.80;;;21.60;64.60;;;;;;5068548;28;20378;-91
2020/12/13 02:13:48;;;;;;;5.78;0.60;;;21.50;64.50;;;;;;5082840;28;20382;-91
2020/12/13 02:16:16;;;;;;;1.33;0.30;;;21.60;63.90;;;;;;5053263;28;20388;-88
2020/12/13 02:18:44;;;;;;;2.90;0.63;;;21.60;61.60;;;;;;5063413;28;20407;-91
2020/12/13 02:21:12;;;;;;;1.95;0.38;;;21.50;61.20;;;;;;5065357;28;20393;-91
2020/12/13 02:23:40;;;;;;;2.17;0.45;;;21.40;61.80;;;;;;5060486;28;20387;-94
2020/12/13 02:26:12;;;;;;;1.65;0.45;;;21.40;61.50;;;;;;5066536;28;20450;-95
2020/12/13 02:28:39;;;;;;;4.30;0.60;;;21.50;63.10;;;;;;5039493;28;20408;-91
2020/12/13 02:31:07;;;;;;;2.70;0.40;;;21.60;63.10;;;;;;5060467;28;20393;-91
2020/12/13 02:33:36;;;;;;;2.92;0.77;;;21.80;64.20;;;;;;5057435;28;20407;-90
2020/12/13 02:36:06;;;;;;;2.70;0.77;;;21.90;63.80;;;;;;5058205;28;20376;-91
2020/12/13 02:38:34;;;;;;;3.47;0.40;;;21.90;62.70;;;;;;5048664;28;20388;-93
2020/12/13 02:41:01;;;;;;;2.80;0.50;;;21.80;62.50;;;;;;5052050;28;20471;-90
2020/12/13 02:43:29;;;;;;;3.70;0.60;;;21.80;62.30;;;;;;5059523;28;20427;-91
2020/12/13 02:45:56;;;;;;;4.07;0.95;;;21.60;61.80;;;;;;5054237;28;20397;-88
2020/12/13 02:48:23;;;;;;;1.90;0.50;;;21.60;63.60;;;;;;5064961;28;20410;-95
2020/12/13 02:50:50;;;;;;;2.60;0.50;;;21.50;61.60;;;;;;5062238;28;20457;-90
2020/12/13 02:53:17;;;;;;;3.10;0.37;;;21.50;62.00;;;;;;5045635;28;20485;-90
2020/12/13 02:55:45;;;;;;;3.38;0.55;;;21.60;60.90;;;;;;5044100;28;20387;-90
2020/12/13 02:58:12;;;;;;;2.85;0.50;;;21.70;61.30;;;;;;5031744;28;20383;-87
2020/12/13 03:00:39;;;;;;;2.00;0.50;;;21.80;63.00;;;;;;5036574;28;20399;-87
2020/12/13 03:03:06;;;;;;;2.90;0.57;;;22.00;63.20;;;;;;5047058;28;20384;-87
2020/12/13 03:05:33;;;;;;;3.05;0.40;;;21.80;62.10;;;;;;5049590;28;20472;-90
2020/12/13 03:08:00;;;;;;;2.65;0.50;;;21.40;65.20;;;;;;5054383;28;20404;-90
2020/12/13 03:10:27;;;;;;;4.00;0.57;;;21.20;66.70;;;;;;5054216;28;20728;-90
2020/12/13 03:12:54;;;;;;;2.58;0.40;;;21.00;68.80;;;;;;5048870;28;20486;-89
2020/12/13 03:15:21;;;;;;;2.45;0.70;;;21.00;68.80;;;;;;5032350;28;20411;-89
2020/12/13 03:17:48;;;;;;;2.33;0.65;;;21.20;68.70;;;;;;5036796;28;20796;-91
2020/12/13 03:20:15;;;;;;;3.10;0.60;;;21.30;68.20;;;;;;5047819;28;20501;-88
2020/12/13 03:22:42;;;;;;;3.53;0.90;;;21.50;68.20;;;;;;5041130;28;20409;-89
2020/12/13 03:25:09;;;;;;;5.28;0.68;;;21.70;69.40;;;;;;5044834;28;20397;-93
2020/12/13 03:27:37;;;;;;;5.03;0.80;;;21.90;69.40;;;;;;5055442;28;20451;-95
2020/12/13 03:30:04;;;;;;;3.70;0.70;;;22.00;67.20;;;;;;5040168;28;20437;-93
2020/12/13 03:32:41;;;;;;;4.70;0.80;;;22.10;65.40;;;;;;5030613;28;20473;-93
2020/12/13 03:35:08;;;;;;;5.45;0.60;;;21.90;66.70;;;;;;5029318;28;20824;-94
2020/12/13 03:37:37;;;;;;;2.50;0.50;;;22.10;66.90;;;;;;5027071;28;20401;-93
2020/12/13 03:40:04;;;;;;;6.20;0.70;;;22.10;66.10;;;;;;5022716;28;20414;-93
2020/12/13 03:42:31;;;;;;;4.72;0.80;;;22.00;64.60;;;;;;5059917;28;20478;-92
2020/12/13 03:44:58;;;;;;;2.50;0.50;;;21.90;64.60;;;;;;5037316;28;20397;-91
2020/12/13 03:47:30;;;;;;;2.83;0.50;;;21.80;64.10;;;;;;5061232;28;20392;-94
2020/12/13 03:49:57;;;;;;;3.87;0.50;;;21.70;65.10;;;;;;5026654;28;20387;-93
2020/12/13 03:52:23;;;;;;;3.27;0.50;;;21.80;65.20;;;;;;5053812;28;20371;-92
2020/12/13 03:54:50;;;;;;;2.87;0.50;;;21.90;67.10;;;;;;5037197;28;20739;-91
2020/12/13 03:57:17;;;;;;;5.22;0.90;;;21.80;66.10;;;;;;5038415;28;20405;-91
2020/12/13 03:59:44;;;;;;;4.75;0.63;;;21.70;66.60;;;;;;5055640;28;20425;-93
2020/12/13 04:02:11;;;;;;;4.03;0.75;;;21.50;67.30;;;;;;5056059;28;20415;-95
2020/12/13 04:04:38;;;;;;;4.43;0.65;;;21.50;69.20;;;;;;5038132;28;20459;-92
2020/12/13 04:07:05;;;;;;;4.35;0.70;;;21.50;70.20;;;;;;5056183;28;20921;-95
2020/12/13 04:09:33;;;;;;;2.92;0.50;;;21.50;67.50;;;;;;5040717;28;20857;-93
2020/12/13 04:12:00;;;;;;;4.43;0.77;;;21.50;67.20;;;;;;5042074;28;21146;-92
2020/12/13 04:14:27;;;;;;;3.38;0.63;;;21.50;67.10;;;;;;5057954;28;20957;-94
2020/12/13 04:16:54;;;;;;;3.08;0.50;;;21.40;67.70;;;;;;5057387;28;21023;-93
2020/12/13 04:19:21;;;;;;;4.20;0.70;;;21.50;68.80;;;;;;5057751;28;20368;-90
2020/12/13 04:21:48;;;;;;;2.90;0.40;;;21.40;66.90;;;;;;5055350;28;20384;-93
2020/12/13 04:24:15;;;;;;;5.13;0.70;;;21.10;66.80;;;;;;5058173;28;20447;-94
2020/12/13 04:26:42;;;;;;;2.55;0.80;;;21.00;68.00;;;;;;5040733;28;20538;-89
2020/12/13 04:29:09;;;;;;;5.72;0.80;;;21.00;67.90;;;;;;5058447;28;20380;-92
2020/12/13 04:31:36;;;;;;;1.80;0.52;;;21.10;66.80;;;;;;5054858;28;20514;-94
2020/12/13 04:34:03;;;;;;;1.65;0.50;;;21.20;66.50;;;;;;5054200;28;20383;-94
2020/12/13 04:36:30;;;;;;;4.05;0.50;;;21.50;65.50;;;;;;5043738;28;20390;-91
2020/12/13 04:38:57;;;;;;;3.40;0.70;;;21.50;64.10;;;;;;5035692;28;20392;-94
2020/12/13 04:41:24;;;;;;;2.60;0.40;;;21.50;66.00;;;;;;5034303;28;20446;-91
2020/12/13 04:43:52;;;;;;;5.68;0.65;;;21.60;66.50;;;;;;5034837;28;20447;-90
2020/12/13 04:46:22;;;;;;;3.38;0.63;;;21.40;66.20;;;;;;5034549;28;20432;-95
2020/12/13 04:48:50;;;;;;;3.70;0.60;;;21.20;66.80;;;;;;5035009;28;20409;-92
2020/12/13 04:51:20;;;;;;;5.70;0.98;;;21.30;66.10;;;;;;5031946;28;20441;-92
2020/12/13 04:53:50;;;;;;;2.90;0.50;;;21.50;66.90;;;;;;5034045;28;20381;-96
2020/12/13 04:56:22;;;;;;;3.72;0.60;;;21.80;66.30;;;;;;5035307;28;20397;-93
2020/12/13 04:58:49;;;;;;;7.20;0.70;;;21.90;65.40;;;;;;5033803;28;20396;-90
2020/12/13 05:01:18;;;;;;;3.85;0.60;;;21.80;64.50;;;;;;5036359;28;20419;-90
2020/12/13 05:03:45;;;;;;;3.03;0.55;;;21.70;64.70;;;;;;5035603;28;20381;-89
2020/12/13 05:06:13;;;;;;;2.17;0.50;;;21.60;64.50;;;;;;5036376;28;20522;-94
2020/12/13 05:08:40;;;;;;;2.45;0.50;;;21.70;65.20;;;;;;5036160;28;20396;-90
2020/12/13 05:11:08;;;;;;;5.07;0.70;;;21.70;66.10;;;;;;5036615;28;20432;-91
2020/12/13 05:13:38;;;;;;;4.43;0.60;;;21.80;67.00;;;;;;5034293;28;20731;-93
2020/12/13 05:16:09;;;;;;;3.80;0.75;;;21.90;65.60;;;;;;5033151;28;20405;-93
2020/12/13 05:18:43;;;;;;;1.70;0.40;;;22.00;66.30;;;;;;5034828;28;20408;-91
2020/12/13 05:21:10;;;;;;;3.13;0.40;;;21.80;66.80;;;;;;5033823;28;20381;-92
2020/12/13 05:23:37;;;;;;;4.45;0.60;;;21.70;68.20;;;;;;5033330;28;20377;-93
2020/12/13 05:26:04;;;;;;;2.83;0.52;;;21.60;67.90;;;;;;5033221;28;20384;-90
2020/12/13 05:28:34;;;;;;;4.07;0.63;;;21.80;68.50;;;;;;5031953;28;20417;-93
2020/12/13 05:31:02;;;;;;;2.53;0.50;;;22.00;67.50;;;;;;5035596;28;20714;-92
2020/12/13 05:33:33;;;;;;;4.38;1.05;;;22.10;66.90;;;;;;5034338;28;21326;-90
2020/12/13 05:36:09;;;;;;;4.57;0.90;;;22.00;67.40;;;;;;5035030;28;20411;-90
2020/12/13 05:38:38;;;;;;;3.03;0.70;;;22.00;67.00;;;;;;5036456;28;20382;-92
2020/12/13 05:41:07;;;;;;;1.52;0.50;;;21.70;67.70;;;;;;5038498;28;20435;-88
2020/12/13 05:43:49;;;;;;;4.15;0.73;;;21.50;68.50;;;;;;5041239;28;20385;-89
2020/12/13 05:52:03;;;;;;;2.65;0.57;;;21.00;72.20;;;;;;4996808;28;20468;-91
2020/12/13 05:54:30;;;;;;;5.15;0.77;;;21.00;71.10;;;;;;5012892;28;20386;-89
2020/12/13 05:57:03;;;;;;;3.00;0.60;;;21.10;70.90;;;;;;5031430;28;20374;-92
2020/12/13 05:59:32;;;;;;;3.53;0.80;;;21.30;68.00;;;;;;5033876;28;20389;-89
2020/12/13 06:02:02;;;;;;;5.70;0.70;;;21.30;67.40;;;;;;5033537;28;20424;-90
2020/12/13 06:04:40;;;;;;;2.40;0.60;;;21.50;67.00;;;;;;5015979;28;20390;-88
2020/12/13 06:07:10;;;;;;;1.63;0.40;;;21.70;65.00;;;;;;5033524;28;20912;-89
2020/12/13 06:09:40;;;;;;;6.10;1.10;;;21.70;64.40;;;;;;5034075;28;20904;-90
2020/12/13 06:12:12;;;;;;;2.97;0.57;;;21.60;64.40;;;;;;5033419;28;20808;-91
2020/12/13 06:14:43;;;;;;;4.72;0.50;;;21.30;65.40;;;;;;5033220;28;20385;-89
2020/12/13 06:17:10;;;;;;;2.25;0.57;;;21.20;66.60;;;;;;5033712;28;20494;-89
2020/12/13 06:19:39;;;;;;;2.65;0.60;;;21.10;68.10;;;;;;5034692;28;20873;-89
2020/12/13 06:22:07;;;;;;;4.07;0.63;;;21.10;68.20;;;;;;5035049;28;20366;-91
2020/12/13 06:24:34;;;;;;;3.67;0.68;;;21.10;68.10;;;;;;5033596;28;20856;-91
2020/12/13 06:27:01;;;;;;;1.83;0.52;;;21.30;66.90;;;;;;5016129;28;20915;-88
2020/12/13 06:29:29;;;;;;;1.65;0.40;;;21.20;65.60;;;;;;5037039;28;20388;-91
2020/12/13 06:31:58;;;;;;;3.83;0.50;;;21.10;66.60;;;;;;5038339;28;20445;-94
2020/12/13 06:34:25;;;;;;;2.10;0.40;;;20.90;67.30;;;;;;5037590;28;20389;-89
2020/12/13 06:36:53;;;;;;;2.97;0.50;;;20.70;68.40;;;;;;5016401;28;20396;-90
2020/12/13 06:39:27;;;;;;;2.08;0.40;;;20.70;68.40;;;;;;5035019;28;20396;-92
2020/12/13 06:41:54;;;;;;;3.58;0.70;;;20.80;68.00;;;;;;5033850;28;20375;-91
2020/12/13 06:44:23;;;;;;;2.23;0.47;;;21.00;67.90;;;;;;5035250;28;20425;-91
2020/12/13 06:46:50;;;;;;;2.40;0.40;;;21.20;68.00;;;;;;5034564;28;20401;-88
2020/12/13 06:49:19;;;;;;;6.43;0.63;;;21.20;65.80;;;;;;5034958;28;20923;-92
2020/12/13 06:51:48;;;;;;;1.55;0.35;;;21.10;67.80;;;;;;5039816;28;20377;-89
2020/12/13 06:54:18;;;;;;;1.17;0.50;;;20.80;69.10;;;;;;5035569;28;20413;-91
2020/12/13 06:56:47;;;;;;;3.42;0.80;;;20.60;69.40;;;;;;5037198;28;20370;-89
2020/12/13 06:59:18;;;;;;;2.58;0.70;;;20.60;69.70;;;;;;5037233;28;20386;-92
2020/12/13 07:01:47;;;;;;;4.75;0.50;;;20.60;68.60;;;;;;5034368;28;20385;-90
2020/12/13 07:04:34;;;;;;;2.95;0.60;;;20.60;70.20;;;;;;5016828;28;20389;-90
2020/12/13 07:07:07;;;;;;;1.38;0.30;;;20.60;70.90;;;;;;5034010;28;20821;-92
2020/12/13 07:09:34;;;;;;;1.63;0.50;;;20.60;70.30;;;;;;5033820;28;20404;-88
2020/12/13 07:12:03;;;;;;;3.50;0.98;;;20.50;71.30;;;;;;5032978;28;20877;-91
2020/12/13 07:14:32;;;;;;;3.75;1.77;;;20.50;71.90;;;;;;5033050;28;20488;-90
2020/12/13 07:17:03;;;;;;;3.40;1.70;;;20.60;72.70;;;;;;5033574;28;20369;-90
2020/12/13 07:19:33;;;;;;;5.75;0.63;;;20.70;73.90;;;;;;5034021;28;20385;-90
2020/12/13 07:22:03;;;;;;;3.92;0.65;;;20.70;74.60;;;;;;5033254;28;20378;-87
2020/12/13 07:24:30;;;;;;;6.85;0.85;;;20.50;76.10;;;;;;5033335;28;20409;-89
2020/12/13 07:26:59;;;;;;;5.75;1.10;;;20.30;77.90;;;;;;5034100;28;20401;-90
2020/12/13 07:29:27;;;;;;;6.47;1.10;;;20.10;79.60;;;;;;5032915;28;20462;-87
2020/12/13 07:31:54;;;;;;;5.07;1.10;;;20.00;80.30;;;;;;5031619;28;20372;-88
2020/12/13 07:34:22;;;;;;;8.52;1.13;;;19.90;81.00;;;;;;5032483;28;20385;-89
2020/12/13 07:36:49;;;;;;;5.63;0.90;;;19.90;81.50;;;;;;5033744;28;20361;-87
2020/12/13 07:39:16;;;;;;;6.35;1.13;;;19.90;81.40;;;;;;5032686;28;20378;-91
2020/12/13 07:41:47;;;;;;;7.10;0.90;;;19.80;81.80;;;;;;5032756;28;20831;-93
2020/12/13 07:44:16;;;;;;;4.95;0.63;;;19.80;81.30;;;;;;5033931;28;20416;-89
2020/12/13 07:46:44;;;;;;;4.28;0.82;;;19.80;80.30;;;;;;5034728;28;20389;-93
2020/12/13 07:49:15;;;;;;;4.50;0.85;;;19.70;81.00;;;;;;5037322;28;20396;-94
2020/12/13 07:51:44;;;;;;;3.13;0.75;;;19.60;80.10;;;;;;5038114;28;20412;-93
2020/12/13 07:54:14;;;;;;;5.20;0.70;;;19.70;80.70;;;;;;5037941;28;20420;-92
2020/12/13 07:56:48;;;;;;;5.18;1.02;;;19.70;80.80;;;;;;5037815;28;20373;-95
2020/12/13 07:59:16;;;;;;;3.65;0.60;;;19.70;80.60;;;;;;5036140;28;20382;-95
2020/12/13 08:01:46;;;;;;;4.20;0.77;;;19.80;79.90;;;;;;5036554;28;20386;-94
2020/12/13 08:04:14;;;;;;;4.35;0.80;;;19.90;79.60;;;;;;5036668;28;20718;-93
2020/12/13 08:06:42;;;;;;;5.43;1.00;;;19.90;79.20;;;;;;5054794;28;20419;-87
2020/12/13 08:09:13;;;;;;;3.63;0.80;;;20.00;79.30;;;;;;5041091;28;20411;-94
2020/12/13 08:11:41;;;;;;;3.95;0.88;;;20.00;79.30;;;;;;5037858;28;20757;-93
2020/12/13 08:14:09;;;;;;;5.70;0.70;;;19.90;79.20;;;;;;5019691;28;20466;-92
2020/12/13 08:16:36;;;;;;;7.20;0.88;;;19.90;79.90;;;;;;5036909;28;20385;-91
2020/12/13 08:19:19;;;;;;;3.73;1.07;;;19.80;80.40;;;;;;5035298;28;20432;-94
2020/12/13 08:22:06;;;;;;;3.97;0.73;;;19.80;81.10;;;;;;5035815;28;20400;-93
2020/12/13 08:24:33;;;;;;;4.07;0.90;;;19.70;81.10;;;;;;5036827;28;20393;-94
2020/12/13 08:27:02;;;;;;;4.10;0.70;;;19.60;81.60;;;;;;5035619;28;20394;-91
2020/12/13 08:29:34;;;;;;;3.53;0.90;;;19.50;82.20;;;;;;5016845;28;20389;-95
2020/12/13 08:32:10;;;;;;;5.00;0.80;;;19.40;82.60;;;;;;5036672;28;20367;-91
2020/12/13 08:34:37;;;;;;;3.65;0.95;;;19.40;82.30;;;;;;5018551;28;20396;-92
2020/12/13 08:37:05;;;;;;;4.03;0.70;;;19.40;82.80;;;;;;5034980;28;20438;-93
2020/12/13 08:39:34;;;;;;;3.53;0.80;;;19.30;83.40;;;;;;5018036;28;20393;-94
2020/12/13 08:42:03;;;;;;;4.45;1.30;;;19.40;83.10;;;;;;5036798;28;20453;-93
2020/12/13 08:44:42;;;;;;;3.73;0.90;;;19.40;82.90;;;;;;5034706;28;20406;-91
2020/12/13 08:47:11;;;;;;;3.05;0.90;;;19.40;82.80;;;;;;5043643;28;20395;-92
2020/12/13 08:50:03;;;;;;;2.42;0.60;;;19.40;82.60;;;;;;5025545;28;20407;-94
2020/12/13 08:52:36;;;;;;;3.25;0.70;;;19.40;82.40;;;;;;5036217;28;20373;-94
2020/12/13 08:55:07;;;;;;;4.93;1.15;;;19.30;82.30;;;;;;5023171;28;20411;-94
2020/12/13 08:57:45;;;;;;;3.53;0.80;;;19.30;82.90;;;;;;5041284;28;20377;-92
2020/12/13 09:00:14;;;;;;;3.57;0.57;;;19.20;83.30;;;;;;5059485;28;20397;-95
2020/12/13 09:03:02;;;;;;;4.82;0.70;;;19.20;84.20;;;;;;5045740;28;20889;-96
2020/12/13 09:05:31;;;;;;;3.87;0.80;;;19.20;84.40;;;;;;5042321;28;20388;-95
2020/12/13 09:08:23;;;;;;;4.07;0.88;;;19.20;84.80;;;;;;5046742;28;20413;-96
2020/12/13 09:10:54;;;;;;;4.35;0.82;;;19.20;84.90;;;;;;5027847;28;20389;-93
2020/12/13 09:13:21;;;;;;;7.45;1.00;;;19.20;85.30;;;;;;5026927;28;20381;-95
2020/12/13 09:15:50;;;;;;;7.43;0.90;;;19.10;85.30;;;;;;5043934;28;20385;-96
2020/12/13 09:18:17;;;;;;;5.55;1.02;;;19.10;85.60;;;;;;5060658;28;20467;-94
2020/12/13 09:20:46;;;;;;;5.13;0.98;;;19.10;85.50;;;;;;5066420;28;20378;-95
2020/12/13 09:23:25;;;;;;;3.70;0.80;;;19.10;85.60;;;;;;5081052;28;20408;-93
2020/12/13 09:25:53;;;;;;;5.23;1.00;;;19.10;85.60;;;;;;5062012;28;20420;-95
2020/12/13 09:28:21;;;;;;;3.78;1.00;;;19.10;85.80;;;;;;5061512;28;20485;-93
2020/12/13 09:30:48;;;;;;;5.63;0.88;;;19.10;86.40;;;;;;5060452;28;20374;-93
2020/12/13 09:33:18;;;;;;;6.27;1.10;;;19.00;86.40;;;;;;5056923;28;20384;-90
2020/12/13 09:35:45;;;;;;;10.50;1.17;;;19.10;86.70;;;;;;5043831;28;20390;-89
2020/12/13 09:38:15;;;;;;;8.97;1.10;;;19.10;86.80;;;;;;5077945;28;20398;-93
2020/12/13 09:40:48;;;;;;;7.63;1.13;;;19.10;87.20;;;;;;5061075;28;20851;-95
2020/12/13 09:43:17;;;;;;;6.20;1.10;;;19.10;87.50;;;;;;5046942;28;20384;-94
2020/12/13 09:45:46;;;;;;;6.05;1.10;;;19.10;88.00;;;;;;5063809;28;20402;-93
2020/12/13 09:48:13;;;;;;;6.87;1.10;;;19.10;87.70;;;;;;5054629;28;20485;-93
2020/12/13 09:50:40;;;;;;;8.77;1.63;;;19.00;88.40;;;;;;5061153;28;20373;-96
2020/12/13 09:53:09;;;;;;;5.95;1.00;;;19.00;89.80;;;;;;5053782;28;20409;-92
2020/12/13 09:55:36;;;;;;;7.70;0.93;;;18.80;88.00;;;;;;5060236;28;20399;-95
2020/12/13 09:58:03;;;;;;;9.43;1.35;;;18.60;91.00;;;;;;5039635;28;20380;-94
2020/12/13 10:00:35;;;;;;;8.10;1.40;;;18.40;91.70;;;;;;5043491;28;20502;-96
2020/12/13 10:03:13;;;;;;;7.90;1.23;;;18.20;92.20;;;;;;5067880;28;20402;-95
2020/12/13 10:11:35;;;;;;;6.65;0.95;;;18.10;92.50;;;;;;4999539;28;20405;-93
2020/12/13 10:14:02;;;;;;;6.38;1.10;;;18.10;92.40;;;;;;4981930;28;20420;-95
2020/12/13 10:16:39;;;;;;;6.80;1.02;;;18.10;92.50;;;;;;5006890;28;20389;-96
2020/12/13 10:19:07;;;;;;;7.38;1.02;;;18.10;92.60;;;;;;5009694;28;20915;-95
2020/12/13 10:21:45;;;;;;;5.10;0.90;;;18.00;92.20;;;;;;5062316;28;20393;-95
2020/12/13 10:24:12;;;;;;;8.20;1.23;;;18.00;92.00;;;;;;5029249;28;20451;-91
2020/12/13 10:26:39;;;;;;;10.63;1.40;;;17.90;92.30;;;;;;5037065;28;20421;-90
2020/12/13 10:29:08;;;;;;;4.23;0.80;;;17.90;92.10;;;;;;5059091;28;20401;-95
2020/12/13 10:31:46;;;;;;;7.38;1.52;;;18.00;92.20;;;;;;5032541;28;20407;-94
2020/12/13 10:34:18;;;;;;;5.15;0.85;;;18.00;92.20;;;;;;5057008;28;20398;-96
2020/12/13 10:36:49;;;;;;;6.82;1.50;;;18.00;92.40;;;;;;5070697;28;20472;-95
2020/12/13 10:39:30;;;;;;;6.15;1.48;;;18.00;92.40;;;;;;5052186;28;20384;-95
2020/12/13 10:41:57;;;;;;;7.88;1.23;;;18.00;92.40;;;;;;5025743;28;20401;-91
2020/12/13 10:44:24;;;;;;;8.25;1.05;;;18.00;92.40;;;;;;5039276;28;20402;-94
2020/12/13 10:46:52;;;;;;;9.75;1.50;;;18.10;92.40;;;;;;5046197;28;20410;-92
2020/12/13 10:49:19;;;;;;;6.82;1.23;;;18.10;92.50;;;;;;5037627;28;20385;-96
2020/12/13 10:51:48;;;;;;;8.53;1.37;;;18.10;92.50;;;;;;5020450;28;20456;-96
2020/12/13 10:54:20;;;;;;;10.63;1.60;;;18.10;92.70;;;;;;5038501;28;20420;-90
2020/12/13 10:56:47;;;;;;;7.05;1.20;;;18.10;93.00;;;;;;5036287;28;20392;-93
2020/12/13 10:59:13;;;;;;;9.20;1.38;;;18.10;93.10;;;;;;5056035;28;20393;-92
2020/12/13 11:01:49;;;;;;;6.03;1.05;;;18.10;93.40;;;;;;5038211;28;20403;-94
2020/12/13 11:04:28;;;;;;;10.30;1.30;;;18.00;93.30;;;;;;5033013;28;20443;-95
2020/12/13 11:06:55;;;;;;;8.50;1.50;;;18.00;93.50;;;;;;5018192;28;20405;-90
2020/12/13 11:09:22;;;;;;;7.03;1.13;;;18.00;93.70;;;;;;5020032;28;20395;-89
2020/12/13 11:11:49;;;;;;;8.43;1.20;;;17.90;93.80;;;;;;5049183;28;20397;-91
2020/12/13 11:14:16;;;;;;;5.25;1.00;;;17.80;94.30;;;;;;5067506;28;20415;-86
2020/12/13 11:16:47;;;;;;;5.28;0.85;;;17.70;94.10;;;;;;5032560;28;20797;-87
2020/12/13 11:19:17;;;;;;;5.50;0.60;;;17.60;94.60;;;;;;5029859;28;20779;-86
2020/12/13 11:21:47;;;;;;;3.08;0.50;;;17.50;94.60;;;;;;5046788;28;20418;-87
2020/12/13 11:24:18;;;;;;;3.97;0.80;;;17.40;94.90;;;;;;5029233;28;20380;-87
2020/12/13 11:26:52;;;;;;;4.28;0.80;;;17.40;95.20;;;;;;5026560;28;20404;-87
2020/12/13 11:29:25;;;;;;;4.93;0.70;;;17.30;95.20;;;;;;5025694;28;20457;-86
2020/12/13 11:32:07;;;;;;;2.53;0.50;;;17.20;95.20;;;;;;5027378;28;20427;-88
2020/12/13 11:34:35;;;;;;;4.90;0.50;;;17.20;95.40;;;;;;5042343;28;20882;-86
2020/12/13 11:37:13;;;;;;;3.90;0.77;;;17.10;95.40;;;;;;5042494;28;20397;-86
2020/12/13 11:39:43;;;;;;;3.58;0.40;;;17.20;95.30;;;;;;5027215;28;20407;-88
2020/12/13 11:43:08;;;;;;;2.50;0.63;;;17.10;95.40;;;;;;5030371;28;20445;-87
2020/12/13 11:46:04;;;;;;;4.88;0.63;;;17.10;95.50;;;;;;4990394;28;20774;-88
2020/12/13 11:48:31;;;;;;;3.15;0.70;;;17.10;95.50;;;;;;5015107;28;20933;-92
2020/12/13 11:50:58;;;;;;;4.25;0.80;;;17.00;95.40;;;;;;5032167;28;20880;-89
2020/12/13 11:53:25;;;;;;;5.22;0.60;;;17.10;95.60;;;;;;5050768;28;20390;-91
2020/12/13 11:55:55;;;;;;;3.38;0.70;;;17.00;95.60;;;;;;5028567;28;20381;-90
2020/12/13 11:58:22;;;;;;;3.97;0.70;;;17.10;95.80;;;;;;5045964;28;20925;-86
2020/12/13 12:00:49;;;;;;;3.65;0.73;;;17.00;95.90;;;;;;5044853;28;20475;-90
2020/12/13 12:03:16;;;;;;;6.75;0.80;;;17.10;96.00;;;;;;5019265;28;20412;-91
2020/12/13 12:05:43;;;;;;;6.22;0.60;;;17.10;95.90;;;;;;5044841;28;20390;-90
2020/12/13 12:08:10;;;;;;;3.80;0.50;;;17.10;96.00;;;;;;5033890;28;20408;-90
2020/12/13 12:10:37;;;;;;;3.42;0.50;;;17.10;95.90;;;;;;5049518;28;20397;-90
2020/12/13 12:13:07;;;;;;;3.72;0.60;;;17.10;95.90;;;;;;5030447;28;20726;-91
2020/12/13 12:15:34;;;;;;;4.28;0.57;;;17.10;95.90;;;;;;5065421;28;20437;-91
2020/12/13 12:18:01;;;;;;;3.53;0.43;;;17.10;96.00;;;;;;5038805;28;20394;-91
2020/12/13 12:20:28;;;;;;;5.30;0.60;;;17.10;95.90;;;;;;5048847;28;20371;-92
2020/12/13 12:22:56;;;;;;;4.07;0.55;;;17.10;95.80;;;;;;5022489;28;20426;-91
2020/12/13 12:25:23;;;;;;;1.65;0.40;;;17.20;95.80;;;;;;5039548;28;20391;-88
2020/12/13 12:27:50;;;;;;;3.78;0.73;;;17.10;95.80;;;;;;5056848;28;20404;-89
2020/12/13 12:30:23;;;;;;;4.30;0.63;;;17.10;95.60;;;;;;5030029;28;20395;-88
2020/12/13 12:32:50;;;;;;;1.73;0.32;;;17.10;95.60;;;;;;5025277;28;21427;-88
2020/12/13 12:35:20;;;;;;;2.83;0.60;;;17.10;95.70;;;;;;5054018;28;20755;-88
2020/12/13 12:37:50;;;;;;;1.98;0.40;;;17.10;95.50;;;;;;5031122;28;20399;-88
2020/12/13 12:40:17;;;;;;;3.55;0.45;;;17.10;95.50;;;;;;5029759;28;20392;-89
2020/12/13 12:42:48;;;;;;;4.05;0.70;;;17.00;95.50;;;;;;5048011;28;20895;-88
2020/12/13 12:46:11;;;;;;;5.13;0.68;;;17.00;95.70;;;;;;5035603;28;20497;-89
2020/12/13 12:48:40;;;;;;;4.70;0.80;;;16.90;95.70;;;;;;5055425;28;20406;-88
2020/12/13 12:51:11;;;;;;;3.20;0.60;;;16.90;95.90;;;;;;5028218;28;20388;-88
2020/12/13 12:53:38;;;;;;;3.60;0.70;;;16.90;96.10;;;;;;5033644;28;20451;-88
2020/12/13 12:56:10;;;;;;;2.40;0.60;;;16.90;96.20;;;;;;5033232;28;20398;-88
2020/12/13 12:59:00;;;;;;;3.38;0.65;;;16.90;96.10;;;;;;5053144;28;20403;-88
2020/12/13 13:05:06;;;;;;;5.23;0.83;;;16.90;96.40;;;;;;4951598;28;20426;-89
2020/12/13 13:07:38;;;;;;;3.95;0.70;;;16.90;96.40;;;;;;5029313;28;20427;-90
2020/12/13 13:10:11;;;;;;;5.85;0.90;;;17.00;96.50;;;;;;5063815;28;20396;-87
2020/12/13 13:12:38;;;;;;;2.97;0.60;;;16.90;96.70;;;;;;5032941;28;20831;-88
2020/12/13 13:15:13;;;;;;;3.43;0.60;;;16.90;96.70;;;;;;5047823;28;20391;-89